Time;durP1;ratioP1;P1;durP2;ratioP2;P2;SDS_P1;SDS_P2;PMS_P1;PMS_P2;Temp;Humidity;BMP_temperature;BMP_pressure;BME280_temperature;BME280_humidity;BME280_pressure;Samples;Min_cycle;Max_cycle;Signal;HPM_P1;HPM_P2
2022/10/27 00:00:55;;;;;;;;;;;10.50;99.90;;;;;;5098504;28;19908;-71
2022/10/27 00:03:20;;;;;;;;;;;10.50;99.90;;;;;;5116250;28;20369;-72
2022/10/27 00:05:47;;;;;;;;;;;10.50;99.90;;;;;;5114877;28;20296;-72
2022/10/27 00:08:17;;;;;;;;;;;10.50;99.90;;;;;;5115227;28;19957;-72
2022/10/27 00:10:43;;;;;;;;;;;10.50;99.90;;;;;;5115405;28;19915;-72
2022/10/27 00:13:09;;;;;;;;;;;10.50;99.90;;;;;;5116002;28;19912;-72
2022/10/27 00:15:36;;;;;;;;;;;10.50;99.90;;;;;;5115140;28;19908;-72
2022/10/27 00:18:06;;;;;;;;;;;10.40;99.90;;;;;;5114893;28;20040;-72
2022/10/27 00:20:31;;;;;;;;;;;10.40;99.90;;;;;;5114880;28;19907;-73
2022/10/27 00:22:57;;;;;;;;;;;10.40;99.90;;;;;;5116188;28;19915;-73
2022/10/27 00:25:22;;;;;;;;;;;10.30;99.90;;;;;;5115380;28;20014;-73
2022/10/27 00:27:48;;;;;;;;;;;10.30;99.90;;;;;;5114710;28;19912;-72
2022/10/27 00:30:13;;;;;;;;;;;10.30;99.90;;;;;;5115169;28;20002;-72
2022/10/27 00:32:38;;;;;;;;;;;10.30;99.90;;;;;;5115957;28;19908;-72
2022/10/27 00:35:04;;;;;;;;;;;10.30;99.90;;;;;;5114632;28;19911;-72
2022/10/27 00:37:30;;;;;;;;;;;10.30;99.90;;;;;;5097192;28;19908;-72
2022/10/27 00:39:55;;;;;;;;;;;10.30;99.90;;;;;;5116113;28;19976;-72
2022/10/27 00:42:21;;;;;;;;;;;10.30;99.90;;;;;;5115474;28;20395;-73
2022/10/27 00:44:46;;;;;;;;;;;10.20;99.90;;;;;;5114100;28;20385;-73
2022/10/27 00:47:19;;;;;;;;;;;10.20;99.90;;;;;;5097301;28;19916;-72
2022/10/27 00:49:47;;;;;;;;;;;10.20;99.90;;;;;;5097413;28;19915;-72
2022/10/27 00:52:18;;;;;;;;;;;10.10;99.90;;;;;;5114301;28;20278;-72
2022/10/27 00:54:43;;;;;;;;;;;10.10;99.90;;;;;;5115454;28;19999;-72
2022/10/27 00:57:10;;;;;;;;;;;10.20;99.90;;;;;;5097012;28;19951;-72
2022/10/27 00:59:36;;;;;;;;;;;10.20;99.90;;;;;;5114993;28;19908;-72
2022/10/27 01:02:02;;;;;;;;;;;10.20;99.90;;;;;;5113550;28;19908;-72
2022/10/27 01:04:39;;;;;;;;;;;10.10;99.90;;;;;;5114251;28;19907;-72
2022/10/27 01:07:04;;;;;;;;;;;10.10;99.90;;;;;;5113718;28;20334;-72
2022/10/27 01:09:30;;;;;;;;;;;10.00;99.90;;;;;;5113604;28;19908;-72
2022/10/27 01:11:56;;;;;;;;;;;10.00;99.90;;;;;;5098677;28;19907;-72
2022/10/27 01:14:22;;;;;;;;;;;10.00;99.90;;;;;;5097359;28;19956;-72
2022/10/27 01:16:57;;;;;;;;;;;10.00;99.90;;;;;;5115328;28;20008;-72
2022/10/27 01:19:34;;;;;;;;;;;10.00;99.90;;;;;;5097424;28;19931;-72
2022/10/27 01:22:19;;;;;;;;;;;10.00;99.90;;;;;;5114316;28;19912;-72
2022/10/27 01:25:05;;;;;;;;;;;10.00;99.90;;;;;;5114484;28;19908;-72
2022/10/27 01:27:50;;;;;;;;;;;10.00;99.90;;;;;;5113617;28;20045;-72
2022/10/27 01:30:18;;;;;;;;;;;10.00;99.90;;;;;;5116020;28;19908;-73
2022/10/27 01:32:55;;;;;;;;;;;9.90;99.90;;;;;;5096804;28;20503;-72
2022/10/27 01:35:32;;;;;;;;;;;9.90;99.90;;;;;;5097090;28;19988;-72
2022/10/27 01:38:04;;;;;;;;;;;9.90;99.90;;;;;;5114248;28;20361;-72
2022/10/27 01:40:33;;;;;;;;;;;10.00;99.90;;;;;;5114221;28;20373;-72
2022/10/27 01:43:03;;;;;;;;;;;10.10;99.90;;;;;;5114923;28;19908;-71
2022/10/27 01:45:31;;;;;;;;;;;10.20;99.90;;;;;;5113871;28;20258;-72
2022/10/27 01:47:57;;;;;;;;;;;10.20;99.90;;;;;;5114188;28;19985;-72
2022/10/27 01:50:26;;;;;;;;;;;10.30;99.90;;;;;;5113383;28;20010;-72
2022/10/27 01:52:51;;;;;;;;;;;10.30;99.90;;;;;;5115681;28;19908;-72
2022/10/27 01:55:19;;;;;;;;;;;10.30;99.90;;;;;;5097226;28;19908;-72
2022/10/27 01:57:54;;;;;;;;;;;10.30;99.90;;;;;;5113497;28;20365;-72
2022/10/27 02:00:20;;;;;;;;;;;10.30;99.90;;;;;;5115468;28;19907;-72
2022/10/27 02:02:50;;;;;;;;;;;10.30;99.90;;;;;;5113852;28;19955;-72
2022/10/27 02:05:29;;;;;;;;;;;10.20;99.90;;;;;;5096427;28;20010;-72
2022/10/27 02:08:00;;;;;;;;;;;10.20;99.90;;;;;;5100162;28;20429;-72
2022/10/27 02:10:28;;;;;;;;;;;10.20;99.90;;;;;;5135407;28;19915;-72
2022/10/27 02:12:54;;;;;;;;;;;10.20;99.90;;;;;;5099483;27;19918;-72
2022/10/27 02:15:26;;;;;;;;;;;10.20;99.90;;;;;;5138321;27;19938;-72
2022/10/27 02:17:52;;;;;;;;;;;10.20;99.90;;;;;;5138600;27;20422;-73
2022/10/27 02:20:21;;;;;;;;;;;10.20;99.90;;;;;;5120530;27;20350;-72
2022/10/27 02:22:49;;;;;;;;;;;10.30;99.90;;;;;;5120302;27;19915;-72
2022/10/27 02:25:15;;;;;;;;;;;10.20;99.90;;;;;;5103572;27;19908;-72
2022/10/27 02:27:43;;;;;;;;;;;10.30;99.90;;;;;;5120556;27;20324;-72
2022/10/27 02:30:09;;;;;;;;;;;10.20;99.90;;;;;;5120278;27;20004;-72
2022/10/27 02:32:34;;;;;;;;;;;10.10;99.90;;;;;;5120481;27;19951;-72
2022/10/27 02:35:00;;;;;;;;;;;10.00;99.90;;;;;;5103539;27;19915;-72
2022/10/27 02:37:29;;;;;;;;;;;10.00;99.90;;;;;;5139220;27;20002;-72
2022/10/27 02:39:54;;;;;;;;;;;10.00;99.90;;;;;;5138288;27;19907;-72
2022/10/27 02:42:20;;;;;;;;;;;9.90;99.90;;;;;;5105675;27;19914;-72
2022/10/27 02:44:45;;;;;;;;;;;9.80;99.90;;;;;;5122681;27;19914;-72
2022/10/27 02:47:11;;;;;;;;;;;10.00;99.90;;;;;;5120978;27;19911;-72
2022/10/27 02:49:36;;;;;;;;;;;10.00;99.90;;;;;;5138649;27;19998;-73
2022/10/27 02:52:03;;;;;;;;;;;9.90;99.90;;;;;;5119919;27;19907;-72
2022/10/27 02:54:29;;;;;;;;;;;9.90;99.90;;;;;;5119655;27;19911;-72
2022/10/27 02:56:55;;;;;;;;;;;9.80;99.90;;;;;;5138010;27;19907;-72
2022/10/27 02:59:20;;;;;;;;;;;9.80;99.90;;;;;;5102616;27;20412;-72
2022/10/27 03:01:45;;;;;;;;;;;9.80;99.90;;;;;;5138246;27;19907;-72
2022/10/27 03:04:13;;;;;;;;;;;9.80;99.90;;;;;;5138074;27;20406;-72
2022/10/27 03:06:39;;;;;;;;;;;9.80;99.90;;;;;;5137654;27;19919;-72
2022/10/27 03:09:05;;;;;;;;;;;9.80;99.90;;;;;;5119626;27;19908;-73
2022/10/27 03:11:30;;;;;;;;;;;9.80;99.90;;;;;;5119674;27;19915;-72
2022/10/27 03:13:56;;;;;;;;;;;9.80;99.90;;;;;;5119496;27;19930;-72
2022/10/27 03:16:21;;;;;;;;;;;9.80;99.90;;;;;;5102451;27;20044;-72
2022/10/27 03:18:46;;;;;;;;;;;9.80;99.90;;;;;;5138393;27;19939;-71
2022/10/27 03:21:12;;;;;;;;;;;9.80;99.90;;;;;;5119725;27;20287;-72
2022/10/27 03:23:37;;;;;;;;;;;9.90;99.90;;;;;;5138748;27;19914;-72
2022/10/27 03:26:03;;;;;;;;;;;9.90;99.90;;;;;;5118783;27;20270;-72
2022/10/27 03:28:33;;;;;;;;;;;9.80;99.90;;;;;;5137720;27;19911;-72
2022/10/27 03:30:59;;;;;;;;;;;9.80;99.90;;;;;;5119322;27;20288;-72
2022/10/27 03:33:25;;;;;;;;;;;9.90;99.90;;;;;;5101594;27;19908;-73
2022/10/27 03:35:50;;;;;;;;;;;9.80;99.90;;;;;;5137341;27;19908;-72
2022/10/27 03:38:16;;;;;;;;;;;10.00;99.90;;;;;;5118669;27;19908;-72
2022/10/27 03:40:41;;;;;;;;;;;10.00;99.90;;;;;;5119025;27;19915;-72
2022/10/27 03:43:08;;;;;;;;;;;9.90;99.90;;;;;;5137339;27;19914;-72
2022/10/27 03:45:34;;;;;;;;;;;9.80;99.90;;;;;;5120454;27;19924;-72
2022/10/27 03:48:00;;;;;;;;;;;9.70;99.90;;;;;;5102775;27;19918;-72
2022/10/27 03:50:26;;;;;;;;;;;9.70;99.90;;;;;;5119460;27;20318;-72
2022/10/27 03:52:51;;;;;;;;;;;9.80;99.90;;;;;;5101934;27;19914;-72
2022/10/27 03:55:17;;;;;;;;;;;9.80;99.90;;;;;;5102430;27;20002;-73
2022/10/27 03:57:42;;;;;;;;;;;9.90;99.90;;;;;;5118162;27;19990;-73
2022/10/27 04:00:08;;;;;;;;;;;10.00;99.90;;;;;;5137175;27;19908;-73
2022/10/27 04:02:33;;;;;;;;;;;10.20;99.90;;;;;;5101748;27;20421;-73
2022/10/27 04:04:59;;;;;;;;;;;10.30;99.90;;;;;;5137313;27;19907;-72
2022/10/27 04:07:24;;;;;;;;;;;10.40;99.90;;;;;;5102176;27;19919;-72
2022/10/27 04:09:50;;;;;;;;;;;10.60;99.90;;;;;;5119503;27;19960;-73
2022/10/27 04:12:15;;;;;;;;;;;10.60;99.90;;;;;;5136458;27;19908;-73
2022/10/27 04:14:41;;;;;;;;;;;10.60;99.90;;;;;;5118163;27;19956;-73
2022/10/27 04:17:06;;;;;;;;;;;10.60;99.90;;;;;;5118844;27;19919;-72
2022/10/27 04:19:32;;;;;;;;;;;10.60;99.90;;;;;;5101582;27;19907;-72
2022/10/27 04:22:00;;;;;;;;;;;10.60;99.90;;;;;;5118657;27;19914;-72
2022/10/27 04:24:25;;;;;;;;;;;10.60;99.90;;;;;;5102394;27;19914;-73
2022/10/27 04:26:51;;;;;;;;;;;10.60;99.90;;;;;;5118696;27;19912;-72
2022/10/27 04:29:16;;;;;;;;;;;10.60;99.90;;;;;;5119762;27;19907;-72
2022/10/27 04:31:42;;;;;;;;;;;10.60;99.90;;;;;;5103124;27;19914;-72
2022/10/27 04:34:07;;;;;;;;;;;10.70;99.90;;;;;;5104859;27;19914;-72
2022/10/27 04:36:33;;;;;;;;;;;10.70;99.90;;;;;;5121137;27;19911;-72
2022/10/27 04:38:58;;;;;;;;;;;10.70;99.90;;;;;;5120484;27;20292;-72
2022/10/27 04:41:24;;;;;;;;;;;10.70;99.90;;;;;;5103343;27;20464;-72
2022/10/27 04:43:50;;;;;;;;;;;10.70;99.90;;;;;;5120151;27;19911;-72
2022/10/27 04:46:16;;;;;;;;;;;10.80;99.90;;;;;;5119284;27;19912;-72
2022/10/27 04:48:42;;;;;;;;;;;10.70;99.90;;;;;;5103371;27;20459;-72
2022/10/27 04:51:07;;;;;;;;;;;10.80;99.90;;;;;;5120253;27;20284;-72
2022/10/27 04:53:33;;;;;;;;;;;10.80;99.90;;;;;;5138330;27;19908;-72
2022/10/27 04:55:58;;;;;;;;;;;10.80;99.90;;;;;;5120604;27;19956;-72
2022/10/27 04:58:24;;;;;;;;;;;10.80;99.90;;;;;;5119076;27;19912;-72
2022/10/27 05:00:49;;;;;;;;;;;10.80;99.90;;;;;;5102524;27;19914;-73
2022/10/27 05:03:15;;;;;;;;;;;10.80;99.90;;;;;;5120101;27;19907;-73
2022/10/27 05:05:40;;;;;;;;;;;10.70;99.90;;;;;;5136099;27;20426;-73
2022/10/27 05:08:07;;;;;;;;;;;10.70;99.90;;;;;;5119533;28;19911;-74
2022/10/27 05:10:34;;;;;;;;;;;10.60;99.90;;;;;;5137069;28;19907;-73
2022/10/27 05:13:00;;;;;;;;;;;10.60;99.90;;;;;;5102721;28;20368;-72
2022/10/27 05:15:25;;;;;;;;;;;10.60;99.90;;;;;;5117979;28;19915;-73
2022/10/27 05:17:51;;;;;;;;;;;10.60;99.90;;;;;;5117800;28;19908;-72
2022/10/27 05:20:17;;;;;;;;;;;10.60;99.90;;;;;;5119064;28;19907;-72
2022/10/27 05:22:42;;;;;;;;;;;10.60;99.90;;;;;;5118051;28;19911;-72
2022/10/27 05:25:08;;;;;;;;;;;10.50;99.90;;;;;;5118943;28;19911;-72
2022/10/27 05:27:34;;;;;;;;;;;10.40;99.90;;;;;;5102087;28;19915;-74
2022/10/27 05:30:00;;;;;;;;;;;10.40;99.90;;;;;;5102401;28;19915;-73
2022/10/27 05:32:25;;;;;;;;;;;10.50;99.90;;;;;;5118318;28;19907;-72
2022/10/27 05:34:51;;;;;;;;;;;10.50;99.90;;;;;;5137389;28;20010;-72
2022/10/27 05:37:17;;;;;;;;;;;10.60;99.90;;;;;;5118821;28;20279;-73
2022/10/27 05:39:42;;;;;;;;;;;10.70;99.90;;;;;;5103152;28;19907;-72
2022/10/27 05:42:08;;;;;;;;;;;10.70;99.90;;;;;;5118102;28;19914;-72
2022/10/27 05:44:34;;;;;;;;;;;10.80;99.90;;;;;;5117462;28;19911;-72
2022/10/27 05:47:00;;;;;;;;;;;10.80;99.90;;;;;;5100597;28;19912;-73
2022/10/27 05:49:25;;;;;;;;;;;10.80;99.90;;;;;;5119952;27;20002;-72
2022/10/27 05:51:51;;;;;;;;;;;10.80;99.90;;;;;;5107039;27;19914;-73
2022/10/27 05:54:17;;;;;;;;;;;10.80;99.90;;;;;;5104134;27;19908;-73
2022/10/27 05:56:43;;;;;;;;;;;10.80;99.90;;;;;;5139876;27;19947;-73
2022/10/27 05:59:09;;;;;;;;;;;10.90;99.90;;;;;;5118416;27;19961;-73
2022/10/27 06:01:34;;;;;;;;;;;10.90;99.90;;;;;;5106556;28;19915;-74
2022/10/27 06:04:00;;;;;;;;;;;11.00;99.90;;;;;;5080450;28;19911;-73
2022/10/27 06:06:26;;;;;;;;;;;11.00;99.90;;;;;;5089228;28;20014;-72
2022/10/27 06:08:51;;;;;;;;;;;11.00;99.90;;;;;;5115537;28;19912;-72
2022/10/27 06:11:17;;;;;;;;;;;11.00;99.90;;;;;;5117028;28;19946;-73
2022/10/27 06:13:42;;;;;;;;;;;11.00;99.90;;;;;;5117982;28;20405;-72
2022/10/27 06:16:08;;;;;;;;;;;11.00;99.90;;;;;;5117371;28;19912;-73
2022/10/27 06:18:33;;;;;;;;;;;11.10;99.90;;;;;;5119090;28;19912;-73
2022/10/27 06:20:59;;;;;;;;;;;11.10;99.90;;;;;;5117153;28;19915;-73
2022/10/27 06:23:24;;;;;;;;;;;11.10;99.90;;;;;;5096616;28;20376;-72
2022/10/27 06:25:50;;;;;;;;;;;11.10;99.90;;;;;;5116157;28;19919;-73
2022/10/27 06:28:15;;;;;;;;;;;11.20;99.90;;;;;;5115369;28;19918;-72
2022/10/27 06:30:42;;;;;;;;;;;11.20;99.90;;;;;;5114481;28;19912;-73
2022/10/27 06:33:08;;;;;;;;;;;11.30;99.90;;;;;;5109331;28;19908;-73
2022/10/27 06:35:33;;;;;;;;;;;11.30;99.90;;;;;;5099058;28;19961;-73
2022/10/27 06:37:58;;;;;;;;;;;11.40;99.90;;;;;;5117817;28;19912;-73
2022/10/27 06:40:24;;;;;;;;;;;11.60;99.90;;;;;;5097796;28;19923;-73
2022/10/27 06:42:49;;;;;;;;;;;12.10;99.90;;;;;;5114495;28;19912;-72
2022/10/27 06:45:16;;;;;;;;;;;12.90;99.90;;;;;;5100144;28;19956;-73
2022/10/27 06:47:42;;;;;;;;;;;13.50;99.90;;;;;;5116802;28;19912;-73
2022/10/27 06:50:08;;;;;;;;;;;13.80;99.90;;;;;;5118862;28;19919;-73
2022/10/27 06:52:34;;;;;;;;;;;14.00;99.90;;;;;;5114144;28;19938;-73
2022/10/27 06:55:00;;;;;;;;;;;13.90;99.90;;;;;;5103515;28;19919;-73
2022/10/27 06:57:25;;;;;;;;;;;13.70;99.90;;;;;;5117352;28;19908;-72
2022/10/27 06:59:51;;;;;;;;;;;13.50;99.90;;;;;;5099676;28;19912;-73
2022/10/27 07:02:16;;;;;;;;;;;13.30;99.90;;;;;;5115518;28;19908;-74
2022/10/27 07:04:58;;;;;;;;;;;13.10;99.90;;;;;;5116899;28;19965;-74
2022/10/27 07:07:29;;;;;;;;;;;13.10;99.90;;;;;;5118067;28;19926;-73
2022/10/27 07:09:57;;;;;;;;;;;12.90;99.90;;;;;;5095060;28;19937;-73
2022/10/27 07:12:22;;;;;;;;;;;13.00;99.90;;;;;;5099295;28;20432;-75
2022/10/27 07:14:48;;;;;;;;;;;13.10;99.90;;;;;;5104295;28;20002;-75
2022/10/27 07:17:14;;;;;;;;;;;13.20;99.90;;;;;;5112168;28;20369;-73
2022/10/27 07:19:39;;;;;;;;;;;13.50;99.90;;;;;;5108461;28;19912;-71
2022/10/27 07:22:05;;;;;;;;;;;14.10;99.90;;;;;;5103583;28;19975;-75
2022/10/27 07:24:30;;;;;;;;;;;14.10;99.90;;;;;;5105894;28;20275;-76
2022/10/27 07:26:56;;;;;;;;;;;14.20;99.90;;;;;;5089510;28;19916;-75
2022/10/27 07:29:21;;;;;;;;;;;14.60;99.90;;;;;;5100296;28;19914;-74
2022/10/27 07:31:47;;;;;;;;;;;14.80;99.90;;;;;;5114072;28;19935;-74
2022/10/27 07:34:12;;;;;;;;;;;14.60;99.90;;;;;;5119773;28;20026;-74
2022/10/27 07:36:38;;;;;;;;;;;14.40;99.90;;;;;;5117898;28;19934;-73
2022/10/27 07:39:04;;;;;;;;;;;14.60;99.90;;;;;;5117839;28;19911;-74
2022/10/27 07:41:29;;;;;;;;;;;14.90;99.90;;;;;;5097451;28;19912;-73
2022/10/27 07:43:57;;;;;;;;;;;15.20;99.90;;;;;;5113512;28;20049;-75
2022/10/27 07:46:23;;;;;;;;;;;15.40;99.90;;;;;;5096190;28;19938;-75
2022/10/27 07:48:48;;;;;;;;;;;16.00;99.90;;;;;;5109732;28;20381;-75
2022/10/27 07:51:14;;;;;;;;;;;16.60;99.90;;;;;;5113183;28;19916;-73
2022/10/27 07:53:39;;;;;;;;;;;17.20;99.90;;;;;;5116281;28;19919;-74
2022/10/27 07:56:05;;;;;;;;;;;17.10;99.90;;;;;;5117292;28;19955;-74
2022/10/27 07:58:30;;;;;;;;;;;17.10;99.90;;;;;;5116066;28;19919;-74
2022/10/27 08:00:56;;;;;;;;;;;17.30;99.90;;;;;;5088448;28;19912;-74
2022/10/27 08:03:24;;;;;;;;;;;17.50;99.90;;;;;;5095344;28;19949;-75
2022/10/27 08:05:50;;;;;;;;;;;18.20;99.90;;;;;;5119101;27;19908;-75
2022/10/27 08:08:16;;;;;;;;;;;19.20;99.90;;;;;;5118766;27;20029;-73
2022/10/27 08:10:43;;;;;;;;;;;20.00;99.90;;;;;;5118456;27;19919;-74
2022/10/27 08:13:09;;;;;;;;;;;20.80;99.90;;;;;;5103228;27;19912;-74
2022/10/27 08:15:35;;;;;;;;;;;21.40;99.90;;;;;;5100841;27;19968;-72
2022/10/27 08:18:02;;;;;;;;;;;21.90;99.90;;;;;;5098595;27;20292;-78
2022/10/27 08:20:30;;;;;;;;;;;22.40;99.90;;;;;;5103521;28;19915;-82
2022/10/27 08:22:59;;;;;;;;;;;22.40;99.90;;;;;;5102547;27;19912;-80
2022/10/27 08:25:25;;;;;;;;;;;22.20;99.90;;;;;;5128123;27;19939;-79
2022/10/27 08:27:51;;;;;;;;;;;22.50;99.90;;;;;;5118871;27;19916;-77
2022/10/27 08:30:17;;;;;;;;;;;22.50;99.90;;;;;;5118430;27;20372;-76
2022/10/27 08:32:42;;;;;;;;;;;23.10;99.90;;;;;;5115149;27;19911;-77
2022/10/27 08:35:08;;;;;;;;;;;22.60;99.90;;;;;;5118237;27;19911;-78
2022/10/27 08:37:34;;;;;;;;;;;23.60;99.90;;;;;;5102413;27;20006;-79
2022/10/27 08:39:59;;;;;;;;;;;23.30;99.90;;;;;;5110436;28;19950;-76
2022/10/27 08:45:10;;;;;;;;;;;23.70;99.90;;;;;;5064955;22;19932;-75
2022/10/27 08:47:36;;;;;;;;;;;23.80;99.90;;;;;;5028766;28;19920;-74
2022/10/27 08:52:43;;;;;;;;;;;24.20;99.90;;;;;;5090446;27;20399;-73
2022/10/27 08:58:00;;;;;;;;;;;24.40;99.90;;;;;;5058402;28;19924;-74
2022/10/27 09:00:27;;;;;;;;;;;24.40;99.90;;;;;;5056688;28;19912;-74
2022/10/27 09:03:02;;;;;;;;;;;24.60;99.90;;;;;;5069099;28;20370;-70
2022/10/27 09:05:47;;;;;;;;;;;24.30;99.90;;;;;;5068912;28;20330;-70
2022/10/27 09:08:17;;;;;;;;;;;24.80;99.90;;;;;;5051546;28;20363;-69
2022/10/27 09:11:02;;;;;;;;;;;25.20;99.90;;;;;;5062496;28;19978;-76
2022/10/27 09:13:37;;;;;;;;;;;25.60;99.90;;;;;;5070339;28;20345;-76
2022/10/27 09:16:04;;;;;;;;;;;26.10;99.90;;;;;;5071040;28;20290;-76
2022/10/27 09:18:36;;;;;;;;;;;25.50;99.90;;;;;;5070435;28;19913;-73
2022/10/27 09:21:08;;;;;;;;;;;25.40;99.90;;;;;;5050667;28;20011;-73
2022/10/27 09:23:36;;;;;;;;;;;25.30;99.90;;;;;;5066172;28;19913;-75
2022/10/27 09:26:01;;;;;;;;;;;25.20;99.90;;;;;;5067875;28;19936;-73
2022/10/27 09:28:36;;;;;;;;;;;24.50;99.90;;;;;;5070230;28;19908;-73
2022/10/27 09:31:03;;;;;;;;;;;24.30;99.90;;;;;;5069873;28;20389;-76
2022/10/27 09:33:31;;;;;;;;;;;24.00;99.90;;;;;;5068480;28;19913;-75
2022/10/27 09:35:57;;;;;;;;;;;23.90;99.90;;;;;;5070482;28;20271;-74
2022/10/27 09:38:23;;;;;;;;;;;24.40;99.90;;;;;;5067240;28;19927;-74
2022/10/27 09:40:51;;;;;;;;;;;24.60;99.90;;;;;;5065370;28;19917;-74
2022/10/27 09:43:17;;;;;;;;;;;24.70;99.90;;;;;;5067238;28;20287;-74
2022/10/27 09:45:43;;;;;;;;;;;25.00;99.90;;;;;;5070152;28;19948;-74
2022/10/27 09:48:16;;;;;;;;;;;25.40;99.90;;;;;;5069053;28;19912;-74
2022/10/27 09:50:51;;;;;;;;;;;24.70;99.90;;;;;;5070861;28;20328;-76
2022/10/27 09:53:36;;;;;;;;;;;24.70;99.90;;;;;;5066678;28;19920;-74
2022/10/27 09:56:02;;;;;;;;;;;24.40;99.90;;;;;;5073964;28;19927;-74
2022/10/27 09:58:28;;;;;;;;;;;24.60;99.90;;;;;;5089273;28;19926;-74
2022/10/27 10:00:55;;;;;;;;;;;24.90;99.90;;;;;;5089276;28;20366;-74
2022/10/27 10:03:21;;;;;;;;;;;25.10;99.90;;;;;;5080317;28;19927;-75
2022/10/27 10:06:03;;;;;;;;;;;24.90;99.90;;;;;;5089679;28;20337;-76
2022/10/27 10:08:29;;;;;;;;;;;25.20;99.90;;;;;;5060661;28;19945;-77
2022/10/27 10:10:56;;;;;;;;;;;25.60;99.90;;;;;;5061172;28;19955;-76
2022/10/27 10:13:22;;;;;;;;;;;25.90;99.90;;;;;;5077504;28;20339;-75
2022/10/27 10:16:02;;;;;;;;;;;25.90;99.90;;;;;;5072569;28;19921;-76
2022/10/27 10:18:28;;;;;;;;;;;25.90;99.90;;;;;;5083877;28;19916;-76
2022/10/27 10:20:56;;;;;;;;;;;25.70;99.90;;;;;;5078561;28;19912;-74
2022/10/27 10:23:23;;;;;;;;;;;25.10;99.90;;;;;;5077665;28;19958;-77
2022/10/27 10:25:49;;;;;;;;;;;25.00;99.90;;;;;;5075048;28;19919;-77
2022/10/27 10:28:19;;;;;;;;;;;24.70;99.90;;;;;;5076821;28;20409;-76
2022/10/27 10:30:48;;;;;;;;;;;24.90;99.90;;;;;;5074471;28;20079;-76
2022/10/27 10:33:15;;;;;;;;;;;25.20;99.90;;;;;;5056920;28;20278;-76
2022/10/27 10:38:26;;;;;;;;;;;25.00;99.90;;;;;;5113563;22;19925;-76
2022/10/27 10:43:40;;;;;;;;;;;25.30;99.90;;;;;;5091941;27;20377;-75
2022/10/27 10:46:14;;;;;;;;;;;25.70;99.90;;;;;;5081537;28;20004;-74
2022/10/27 10:48:45;;;;;;;;;;;25.90;99.90;;;;;;5076247;28;20270;-75
2022/10/27 10:51:12;;;;;;;;;;;25.50;99.90;;;;;;5073064;28;19971;-71
2022/10/27 10:53:46;;;;;;;;;;;25.30;99.90;;;;;;5074921;28;19965;-72
2022/10/27 10:56:21;;;;;;;;;;;24.90;99.90;;;;;;5069888;28;20320;-71
2022/10/27 10:58:47;;;;;;;;;;;23.90;99.90;;;;;;5076692;28;20329;-71
2022/10/27 11:01:13;;;;;;;;;;;24.20;99.90;;;;;;5074614;28;19912;-72
2022/10/27 11:03:42;;;;;;;;;;;24.30;99.90;;;;;;5069061;28;19913;-73
2022/10/27 11:06:15;;;;;;;;;;;24.10;99.90;;;;;;5070199;28;20412;-72
2022/10/27 11:08:41;;;;;;;;;;;24.00;99.90;;;;;;5069303;28;20302;-73
2022/10/27 11:11:12;;;;;;;;;;;23.60;99.90;;;;;;5077576;28;19959;-73
2022/10/27 11:13:39;;;;;;;;;;;23.60;99.90;;;;;;5088207;28;19916;-70
2022/10/27 11:16:06;;;;;;;;;;;23.30;99.90;;;;;;5089402;28;20011;-73
2022/10/27 11:18:42;;;;;;;;;;;23.10;99.90;;;;;;5082185;28;19939;-74
2022/10/27 11:21:28;;;;;;;;;;;23.00;99.90;;;;;;5077316;28;19919;-73
2022/10/27 11:23:59;;;;;;;;;;;23.10;99.90;;;;;;5069161;28;19913;-71
2022/10/27 11:26:29;;;;;;;;;;;23.00;99.90;;;;;;5090038;28;19916;-73
2022/10/27 11:28:58;;;;;;;;;;;23.00;99.90;;;;;;5088565;28;20328;-72
2022/10/27 11:31:43;;;;;;;;;;;22.80;99.90;;;;;;5077404;28;19919;-73
2022/10/27 11:34:29;;;;;;;;;;;23.00;99.90;;;;;;5071771;28;20334;-71
2022/10/27 11:36:57;;;;;;;;;;;23.30;99.90;;;;;;5069513;28;20282;-71
2022/10/27 11:39:28;;;;;;;;;;;23.00;99.90;;;;;;5071594;28;20374;-71
2022/10/27 11:41:59;;;;;;;;;;;22.70;99.90;;;;;;5100269;28;20041;-69
2022/10/27 11:44:33;;;;;;;;;;;22.60;99.90;;;;;;5049668;28;20007;-74
2022/10/27 11:47:10;;;;;;;;;;;22.70;99.90;;;;;;5052967;28;20018;-72
2022/10/27 11:49:56;;;;;;;;;;;22.60;99.90;;;;;;5071805;28;20004;-75
2022/10/27 11:52:25;;;;;;;;;;;22.50;99.90;;;;;;5083536;28;19916;-73
2022/10/27 11:54:51;;;;;;;;;;;22.40;99.90;;;;;;5067174;28;20533;-74
2022/10/27 11:57:36;;;;;;;;;;;22.60;99.90;;;;;;5072579;28;20007;-74
2022/10/27 12:00:09;;;;;;;;;;;22.50;99.90;;;;;;5062969;28;20396;-74
2022/10/27 12:02:51;;;;;;;;;;;22.60;99.90;;;;;;5058687;28;20290;-78
2022/10/27 12:05:20;;;;;;;;;;;22.60;99.90;;;;;;5057789;28;19912;-76
2022/10/27 12:07:54;;;;;;;;;;;22.90;99.90;;;;;;5058341;28;19954;-75
2022/10/27 12:10:26;;;;;;;;;;;23.00;99.90;;;;;;5107314;28;19916;-72
2022/10/27 12:12:57;;;;;;;;;;;23.00;99.90;;;;;;5057882;28;19924;-73
2022/10/27 12:15:26;;;;;;;;;;;23.00;99.90;;;;;;5091797;28;20394;-75
2022/10/27 12:17:58;;;;;;;;;;;22.90;99.90;;;;;;5054510;28;19923;-75
2022/10/27 12:20:27;;;;;;;;;;;22.70;99.90;;;;;;5055204;28;20340;-76
2022/10/27 12:22:57;;;;;;;;;;;22.70;99.90;;;;;;5054065;28;19971;-75
2022/10/27 12:25:28;;;;;;;;;;;22.70;99.90;;;;;;5086336;28;19913;-75
2022/10/27 12:27:57;;;;;;;;;;;22.80;99.90;;;;;;5052886;28;19946;-72
2022/10/27 12:30:23;;;;;;;;;;;22.60;99.90;;;;;;5054745;28;19920;-74
2022/10/27 12:32:57;;;;;;;;;;;22.70;99.90;;;;;;5058330;28;19913;-68
2022/10/27 12:35:27;;;;;;;;;;;22.60;99.90;;;;;;5091856;28;19909;-76
2022/10/27 12:38:01;;;;;;;;;;;22.70;99.90;;;;;;5055266;28;19913;-78
2022/10/27 12:40:30;;;;;;;;;;;22.70;99.90;;;;;;5052559;28;20011;-71
2022/10/27 12:43:15;;;;;;;;;;;22.90;99.90;;;;;;5066019;28;19944;-71
2022/10/27 12:45:52;;;;;;;;;;;22.90;99.90;;;;;;5072687;28;19913;-69
2022/10/27 12:48:25;;;;;;;;;;;22.70;99.90;;;;;;5089490;28;19973;-74
2022/10/27 12:50:59;;;;;;;;;;;22.60;99.90;;;;;;5073563;28;19956;-70
2022/10/27 12:53:44;;;;;;;;;;;22.50;99.90;;;;;;5069061;28;20396;-73
2022/10/27 12:56:30;;;;;;;;;;;22.50;99.90;;;;;;5054537;28;19909;-73
2022/10/27 12:59:01;;;;;;;;;;;22.50;99.90;;;;;;5068785;28;20331;-69
2022/10/27 13:01:37;;;;;;;;;;;22.60;99.90;;;;;;5073657;28;19913;-70
2022/10/27 13:04:20;;;;;;;;;;;22.60;99.90;;;;;;5076537;28;19912;-69
2022/10/27 13:07:07;;;;;;;;;;;22.80;99.90;;;;;;5064336;28;19917;-71
2022/10/27 13:09:42;;;;;;;;;;;22.80;99.90;;;;;;5072458;28;19916;-69
2022/10/27 13:12:14;;;;;;;;;;;22.80;99.90;;;;;;5088692;28;19912;-70
2022/10/27 13:14:52;;;;;;;;;;;22.80;99.90;;;;;;5058431;28;19913;-69
2022/10/27 13:20:26;;;;;;;;;;;22.90;99.90;;;;;;5061397;27;19917;-70
2022/10/27 13:22:55;;;;;;;;;;;22.80;99.90;;;;;;5066414;28;19913;-70
2022/10/27 13:25:26;;;;;;;;;;;22.80;99.90;;;;;;5069090;28;19961;-70
2022/10/27 13:27:55;;;;;;;;;;;22.90;99.90;;;;;;5068189;28;20316;-71
2022/10/27 13:30:22;;;;;;;;;;;22.90;99.90;;;;;;5069386;28;19952;-71
2022/10/27 13:35:29;;;;;;;;;;;23.00;99.90;;;;;;5090716;27;19918;-71
2022/10/27 13:40:37;;;;;;;;;;;22.80;99.90;;;;;;5088555;27;19912;-69
2022/10/27 13:43:22;;;;;;;;;;;22.80;99.90;;;;;;5085382;28;20282;-71
2022/10/27 13:45:49;;;;;;;;;;;22.70;99.90;;;;;;5085146;28;19934;-70
2022/10/27 13:50:54;;;;;;;;;;;22.70;99.90;;;;;;5087766;27;19916;-70
2022/10/27 13:53:23;;;;;;;;;;;22.60;99.90;;;;;;5082337;28;19920;-70
2022/10/27 13:55:49;;;;;;;;;;;22.50;99.90;;;;;;5084875;28;19935;-69
2022/10/27 13:58:19;;;;;;;;;;;22.40;99.90;;;;;;5114579;27;19919;-71
2022/10/27 14:00:54;;;;;;;;;;;22.30;99.90;;;;;;5090219;28;19938;-70
2022/10/27 14:08:52;;;;;;;;;;;22.20;99.90;;;;;;5084459;27;19916;-70
2022/10/27 14:11:19;;;;;;;;;;;22.10;99.90;;;;;;5088537;28;19999;-71
2022/10/27 14:13:46;;;;;;;;;;;22.10;99.90;;;;;;5082663;28;20386;-71
2022/10/27 14:16:17;;;;;;;;;;;22.10;99.90;;;;;;5101628;28;19923;-71
2022/10/27 14:18:43;;;;;;;;;;;22.10;99.90;;;;;;5086984;28;19913;-70
2022/10/27 14:21:20;;;;;;;;;;;22.10;99.90;;;;;;5081702;28;20373;-71
2022/10/27 14:23:46;;;;;;;;;;;22.10;99.90;;;;;;5087542;28;20028;-71
2022/10/27 14:26:31;;;;;;;;;;;22.10;99.90;;;;;;5080893;28;19943;-71
2022/10/27 14:28:57;;;;;;;;;;;22.10;99.90;;;;;;5081973;28;19923;-70
2022/10/27 14:31:22;;;;;;;;;;;22.10;99.90;;;;;;5089621;28;19909;-71
2022/10/27 14:33:49;;;;;;;;;;;22.10;99.90;;;;;;5083559;28;19912;-75
2022/10/27 14:36:27;;;;;;;;;;;22.00;99.90;;;;;;5086207;28;20011;-76
2022/10/27 14:38:57;;;;;;;;;;;22.00;99.90;;;;;;5088654;28;19923;-74
2022/10/27 14:41:28;;;;;;;;;;;22.00;99.90;;;;;;5087880;28;19912;-76
2022/10/27 14:43:56;;;;;;;;;;;22.00;99.90;;;;;;5089257;28;19912;-75
2022/10/27 14:46:23;;;;;;;;;;;21.90;99.90;;;;;;5089680;28;19957;-76
2022/10/27 14:48:52;;;;;;;;;;;21.90;99.90;;;;;;5089050;28;20437;-75
2022/10/27 14:51:18;;;;;;;;;;;21.90;99.90;;;;;;5086273;28;19913;-75
2022/10/27 14:53:47;;;;;;;;;;;21.90;99.90;;;;;;5092574;28;19919;-75
2022/10/27 14:56:16;;;;;;;;;;;21.80;99.90;;;;;;5085388;28;20003;-74